Rocanville, Canada
Current Conditions -  °F | °C
As of 10:00 AM on Friday 28 Nov 2014 (Local Time) from CYQV Reporting Station
Light Snow Light Snow  
Wind Chill: -17°   Ceiling: 2700
Heat Index:   Visibility: 8mi
Dew Point:   Wind: 17mph
Humidity: 85%   Direction: 90°E
Pressure: 29.83"   Gusts: NA
Location:  50.38°N, 101.7°W
Report Text: CYQV 281600Z AUTO 09015KT 8SM -SN OVC027 M16/M18 A2983 RMK PRESFR SLP147
Loading
Personal Weather Stations






























Interactive Weather Map New forecast layout! Learn more

10-Day Weather Forecast

Advertisements
Track Severe Weather on mobile